createdAt,value
2023-04-16T00:00:36.840Z,20.20
2023-04-16T00:03:33.715Z,21.40
2023-04-16T00:06:14.017Z,22.00
2023-04-16T00:08:51.642Z,22.00
2023-04-16T00:11:28.066Z,23.80
2023-04-16T00:14:04.995Z,21.70
2023-04-16T00:16:41.510Z,21.10
2023-04-16T00:19:18.096Z,21.00
2023-04-16T00:21:54.317Z,22.00
2023-04-16T00:24:30.729Z,24.40
2023-04-16T00:27:07.908Z,20.60
2023-04-16T00:29:44.391Z,23.30
2023-04-16T00:32:20.634Z,22.00
2023-04-16T00:34:57.240Z,21.30
2023-04-16T00:37:33.509Z,22.00
2023-04-16T00:40:12.362Z,22.50
2023-04-16T00:42:48.827Z,23.40
2023-04-16T00:45:25.313Z,26.80
2023-04-16T00:48:04.224Z,23.00
2023-04-16T00:50:40.901Z,19.80
2023-04-16T00:53:18.369Z,23.10
2023-04-16T00:55:57.206Z,23.00
2023-04-16T00:58:35.038Z,23.30
2023-04-16T01:01:11.558Z,23.30
2023-04-16T01:03:52.118Z,24.60
2023-04-16T01:06:28.420Z,26.60
2023-04-16T01:09:04.889Z,26.30
2023-04-16T01:11:42.801Z,24.20
2023-04-16T01:14:19.393Z,25.30
2023-04-16T01:16:56.154Z,22.20
2023-04-16T01:19:36.529Z,26.10
2023-04-16T01:22:12.922Z,23.30
2023-04-16T01:24:49.178Z,22.10
2023-04-16T01:27:25.518Z,28.10
2023-04-16T01:30:01.907Z,24.70
2023-04-16T01:32:48.065Z,23.20
2023-04-16T01:35:24.487Z,25.40
2023-04-16T01:38:01.015Z,26.70
2023-04-16T01:40:37.777Z,26.10
2023-04-16T01:43:17.841Z,25.70
2023-04-16T01:45:58.385Z,26.20
2023-04-16T01:48:34.773Z,25.70
2023-04-16T01:51:11.858Z,30.50
2023-04-16T01:53:51.132Z,29.50
2023-04-16T01:56:27.746Z,30.00
2023-04-16T01:59:04.051Z,30.60
2023-04-16T02:01:45.232Z,30.90
2023-04-16T02:04:21.668Z,32.50
2023-04-16T02:06:58.262Z,28.30
2023-04-16T02:09:35.538Z,29.40
2023-04-16T02:12:14.408Z,28.60
2023-04-16T02:14:55.905Z,27.00
2023-04-16T02:17:34.862Z,28.70
2023-04-16T02:20:20.097Z,28.80
2023-04-16T02:23:05.493Z,27.40
2023-04-16T02:25:48.273Z,29.70
2023-04-16T02:28:24.867Z,33.10
2023-04-16T02:31:01.222Z,26.70
2023-04-16T02:33:38.507Z,31.40
2023-04-16T02:36:15.617Z,28.10
2023-04-16T02:38:51.893Z,30.70
2023-04-16T02:41:28.683Z,27.10
2023-04-16T02:44:07.580Z,30.80
2023-04-16T02:46:44.858Z,32.80
2023-04-16T02:49:21.220Z,31.10
2023-04-16T02:51:58.252Z,29.20
2023-04-16T02:54:34.685Z,32.20
2023-04-16T02:57:11.189Z,30.60
2023-04-16T02:59:47.581Z,29.80
2023-04-16T03:02:27.586Z,31.40
2023-04-16T03:05:04.229Z,31.50
2023-04-16T03:07:41.006Z,35.60
2023-04-16T03:10:17.932Z,32.00
2023-04-16T03:12:54.302Z,31.40
2023-04-16T03:15:31.171Z,30.50
2023-04-16T03:18:07.695Z,32.00
2023-04-16T03:20:43.934Z,34.50
2023-04-16T03:23:21.548Z,32.00
2023-04-16T03:25:58.019Z,32.50
2023-04-16T03:28:34.488Z,31.20
2023-04-16T03:31:11.392Z,31.00
2023-04-16T03:33:48.447Z,30.80
2023-04-16T03:36:25.503Z,31.40
2023-04-16T03:39:01.805Z,32.50
2023-04-16T03:41:38.797Z,33.60
2023-04-16T03:44:15.759Z,35.30
2023-04-16T03:46:52.210Z,34.30
2023-04-16T03:49:28.959Z,33.50
2023-04-16T03:52:06.598Z,36.00
2023-04-16T03:54:42.981Z,31.30
2023-04-16T03:57:30.950Z,29.60
2023-04-16T04:00:14.700Z,33.20
2023-04-16T04:02:50.991Z,31.20
2023-04-16T04:05:28.551Z,29.00
2023-04-16T04:08:05.364Z,30.50
2023-04-16T04:10:42.345Z,31.80
2023-04-16T04:13:20.793Z,31.60
2023-04-16T04:15:58.077Z,32.40
2023-04-16T04:18:36.360Z,34.00
2023-04-16T04:21:14.283Z,31.20
2023-04-16T04:23:50.626Z,32.20
2023-04-16T04:26:26.920Z,32.90
2023-04-16T04:29:03.380Z,33.70
2023-04-16T04:31:39.942Z,33.70
2023-04-16T04:34:17.422Z,35.00
2023-04-16T04:36:54.028Z,32.00
2023-04-16T04:39:30.698Z,36.50
2023-04-16T04:42:07.431Z,31.90
2023-04-16T04:44:44.207Z,34.10
2023-04-16T04:47:20.775Z,34.40
2023-04-16T04:49:57.247Z,35.80
2023-04-16T04:52:38.310Z,37.40
2023-04-16T04:55:18.678Z,39.30
2023-04-16T04:57:55.044Z,38.20
2023-04-16T05:00:31.291Z,33.80
2023-04-16T05:03:20.258Z,35.30
2023-04-16T05:06:00.003Z,34.40
2023-04-16T05:08:36.398Z,32.60
2023-04-16T05:11:13.640Z,33.60
2023-04-16T05:13:49.926Z,33.20
2023-04-16T05:16:26.315Z,31.30
2023-04-16T05:19:02.848Z,27.70
2023-04-16T05:21:39.893Z,29.40
2023-04-16T05:24:16.175Z,27.30
2023-04-16T05:26:53.703Z,26.30
2023-04-16T05:29:30.579Z,27.00
2023-04-16T05:32:07.110Z,24.80
2023-04-16T05:34:43.412Z,24.50
2023-04-16T05:37:19.786Z,23.50
2023-04-16T05:39:56.145Z,20.90
2023-04-16T05:42:32.447Z,24.10
2023-04-16T05:45:12.993Z,22.20
2023-04-16T05:47:50.449Z,24.10
2023-04-16T05:50:26.616Z,21.40
2023-04-16T05:53:03.552Z,22.10
2023-04-16T05:55:39.959Z,24.20
2023-04-16T05:58:16.430Z,21.10
2023-04-16T06:00:52.797Z,21.50
2023-04-16T06:03:29.458Z,20.90
2023-04-16T06:06:05.971Z,21.50
2023-04-16T06:08:42.303Z,23.50
2023-04-16T06:11:18.868Z,23.30
2023-04-16T06:13:59.752Z,19.90
2023-04-16T06:16:36.313Z,20.90
2023-04-16T06:19:12.892Z,20.80
2023-04-16T06:21:49.157Z,22.60
2023-04-16T06:24:25.804Z,20.90
2023-04-16T06:27:02.902Z,18.70
2023-04-16T06:29:41.446Z,23.20
2023-04-16T06:32:18.657Z,23.10
2023-04-16T06:34:56.457Z,22.10
2023-04-16T06:37:32.881Z,21.70
2023-04-16T06:40:13.322Z,21.00
2023-04-16T06:42:50.023Z,21.70
2023-04-16T06:45:26.414Z,21.30
2023-04-16T06:48:03.799Z,20.00
2023-04-16T06:50:40.549Z,20.00
2023-04-16T06:53:16.884Z,19.60
2023-04-16T06:55:54.589Z,21.80
2023-04-16T06:58:30.976Z,20.10
2023-04-16T07:01:07.786Z,20.10
2023-04-16T07:03:44.802Z,21.60
2023-04-16T07:06:21.627Z,21.20
2023-04-16T07:08:57.965Z,21.00
2023-04-16T07:11:36.721Z,21.60
2023-04-16T07:14:13.578Z,20.00
2023-04-16T07:16:49.985Z,23.30
2023-04-16T07:19:30.621Z,20.70
2023-04-16T07:22:07.574Z,18.90
2023-04-16T07:24:43.838Z,20.00
2023-04-16T07:27:20.189Z,26.40
2023-04-16T07:29:56.773Z,25.10
2023-04-16T07:32:33.404Z,24.80
2023-04-16T07:35:11.670Z,26.10
2023-04-16T07:37:49.145Z,29.80
2023-04-16T07:40:26.431Z,24.10
2023-04-16T07:43:02.824Z,26.40
2023-04-16T07:45:40.952Z,26.20
2023-04-16T07:48:17.963Z,25.30
2023-04-16T07:50:54.438Z,23.40
2023-04-16T07:53:30.806Z,26.90
2023-04-16T07:56:08.362Z,29.30
2023-04-16T07:58:44.828Z,63.10
2023-04-16T08:01:21.662Z,27.30
2023-04-16T08:03:58.712Z,30.20
2023-04-16T08:06:35.615Z,25.80
2023-04-16T08:09:12.632Z,26.10
2023-04-16T08:11:50.107Z,19.20
2023-04-16T08:14:26.682Z,22.70
2023-04-16T08:17:02.849Z,19.40
2023-04-16T08:19:39.324Z,21.00
2023-04-16T08:22:18.006Z,23.20
2023-04-16T08:24:54.590Z,24.40
2023-04-16T08:27:31.118Z,21.20
2023-04-16T08:30:09.569Z,18.00
2023-04-16T08:32:47.966Z,17.90
2023-04-16T08:35:28.280Z,20.50
2023-04-16T08:38:07.581Z,15.70
2023-04-16T08:40:45.151Z,18.30
2023-04-16T08:43:25.278Z,21.00
2023-04-16T08:46:02.366Z,15.70
2023-04-16T08:48:39.958Z,13.90
2023-04-16T08:51:20.826Z,15.80
2023-04-16T08:54:05.101Z,14.90
2023-04-16T08:56:44.558Z,15.90
2023-04-16T08:59:21.555Z,14.20
2023-04-16T09:02:01.467Z,11.60
2023-04-16T09:04:39.668Z,13.30
2023-04-16T09:07:18.189Z,13.00
2023-04-16T09:09:57.058Z,10.10
2023-04-16T09:12:35.601Z,10.60
2023-04-16T09:15:15.125Z,8.80
2023-04-16T09:17:51.863Z,11.60
2023-04-16T09:20:28.661Z,10.80
2023-04-16T09:23:05.091Z,11.40
2023-04-16T09:25:42.957Z,13.00
2023-04-16T09:28:47.133Z,11.70
2023-04-16T09:31:24.396Z,11.00
2023-04-16T09:34:12.393Z,9.20
2023-04-16T09:36:48.726Z,8.20
2023-04-16T09:39:27.965Z,7.50
2023-04-16T09:42:08.224Z,8.50
2023-04-16T09:44:44.937Z,11.40
2023-04-16T09:47:22.811Z,7.40
2023-04-16T09:50:03.440Z,9.60
2023-04-16T09:52:44.729Z,7.00
2023-04-16T09:55:28.291Z,5.70
2023-04-16T09:58:07.946Z,5.10
2023-04-16T10:00:45.797Z,5.70
2023-04-16T10:03:30.229Z,5.90
2023-04-16T10:06:18.222Z,5.50
2023-04-16T10:08:57.435Z,7.00
2023-04-16T10:11:34.443Z,7.20
2023-04-16T10:14:10.804Z,6.70
2023-04-16T10:16:47.688Z,7.20
2023-04-16T10:19:26.180Z,7.20
2023-04-16T10:22:02.835Z,63.00
2023-04-16T10:24:40.365Z,8.50
2023-04-16T10:27:24.041Z,7.80
2023-04-16T10:30:01.007Z,9.20
2023-04-16T10:32:39.429Z,14.50
2023-04-16T10:35:22.146Z,8.60
2023-04-16T10:38:26.081Z,7.50
2023-04-16T10:41:07.971Z,6.90
2023-04-16T10:43:51.392Z,7.40
2023-04-16T10:46:34.630Z,7.30
2023-04-16T10:49:24.446Z,6.80
2023-04-16T10:52:17.506Z,6.70
2023-04-16T10:54:56.637Z,6.50
2023-04-16T10:57:37.634Z,8.20
2023-04-16T11:00:29.454Z,7.40
2023-04-16T11:05:52.311Z,6.10
2023-04-16T11:08:28.696Z,6.60
2023-04-16T11:11:07.967Z,8.30
2023-04-16T11:13:47.629Z,6.30
2023-04-16T11:16:25.810Z,7.00
2023-04-16T11:19:02.217Z,7.60
2023-04-16T11:21:38.967Z,7.80
2023-04-16T11:24:16.785Z,8.70
2023-04-16T11:26:55.765Z,7.00
2023-04-16T11:29:32.314Z,7.70
2023-04-16T11:32:09.364Z,7.60
2023-04-16T11:35:04.879Z,7.70
2023-04-16T11:37:43.691Z,6.90
2023-04-16T11:40:20.635Z,7.50
2023-04-16T11:42:59.289Z,8.20
2023-04-16T11:45:36.601Z,8.90
2023-04-16T11:48:13.218Z,8.20
2023-04-16T11:51:00.225Z,7.30
2023-04-16T11:53:37.766Z,9.00
2023-04-16T11:56:14.163Z,9.10
2023-04-16T11:59:11.776Z,7.80
2023-04-16T12:01:51.855Z,8.40
2023-04-16T12:04:30.511Z,6.50
2023-04-16T12:07:15.693Z,6.30
2023-04-16T12:09:52.118Z,6.10
2023-04-16T12:12:35.836Z,5.20
2023-04-16T12:15:14.054Z,10.10
2023-04-16T12:17:51.556Z,7.30
2023-04-16T12:20:27.980Z,5.90
2023-04-16T12:23:04.266Z,6.50
2023-04-16T12:25:44.072Z,7.40
2023-04-16T12:28:33.118Z,4.80
2023-04-16T12:31:10.852Z,6.70
2023-04-16T12:34:02.303Z,5.80
2023-04-16T12:36:39.053Z,6.10
2023-04-16T12:39:17.429Z,5.20
2023-04-16T12:41:53.993Z,8.20
2023-04-16T12:44:30.846Z,6.10
2023-04-16T12:47:07.603Z,4.80
2023-04-16T12:49:45.820Z,6.40
2023-04-16T12:52:23.734Z,7.20
2023-04-16T12:55:04.729Z,6.20
2023-04-16T12:57:41.108Z,4.50
2023-04-16T13:00:20.649Z,5.40
2023-04-16T13:02:57.027Z,5.10
2023-04-16T13:05:34.041Z,6.20
2023-04-16T13:08:11.175Z,6.20
2023-04-16T13:10:47.474Z,6.50
2023-04-16T13:13:23.833Z,7.00
2023-04-16T13:16:06.684Z,7.70
2023-04-16T13:18:43.153Z,6.20
2023-04-16T13:21:19.691Z,5.70
2023-04-16T13:23:57.284Z,6.40
2023-04-16T13:26:33.647Z,6.00
2023-04-16T13:29:10.375Z,5.30
2023-04-16T13:31:47.782Z,5.00
2023-04-16T13:34:24.390Z,4.50
2023-04-16T13:37:00.952Z,5.00
2023-04-16T13:39:37.913Z,5.00
2023-04-16T13:42:14.198Z,5.40
2023-04-16T13:44:53.274Z,6.00
2023-04-16T17:18:32.657Z,23.30
2023-04-16T17:21:15.849Z,15.50
2023-04-16T17:23:52.959Z,15.60
2023-04-16T17:26:29.333Z,15.80
2023-04-16T17:29:05.935Z,16.60
2023-04-16T17:31:42.813Z,17.90
2023-04-16T17:34:19.679Z,17.60
2023-04-16T17:36:56.020Z,18.60
2023-04-16T17:39:32.727Z,19.70
2023-04-16T17:42:09.646Z,20.00
2023-04-16T17:44:46.138Z,19.00
2023-04-16T17:47:22.751Z,20.00
2023-04-16T17:50:00.617Z,19.60
2023-04-16T17:52:37.806Z,17.70
2023-04-16T17:55:15.519Z,17.90
2023-04-16T17:57:51.857Z,16.90
2023-04-16T18:00:28.541Z,16.70
2023-04-16T18:03:05.188Z,18.10
2023-04-16T18:05:42.710Z,17.10
2023-04-16T18:08:19.368Z,19.80
2023-04-16T18:10:56.882Z,17.30
2023-04-16T18:13:33.234Z,17.00
2023-04-16T18:16:17.532Z,18.00
2023-04-16T18:18:53.911Z,17.50
2023-04-16T18:21:31.729Z,17.70
2023-04-16T18:24:11.586Z,20.80
2023-04-16T18:26:48.464Z,19.80
2023-04-16T18:29:25.480Z,19.80
2023-04-16T18:32:04.422Z,25.30
2023-04-16T18:34:41.742Z,19.40
2023-04-16T18:37:18.638Z,19.70
2023-04-16T18:39:57.786Z,17.40
2023-04-16T18:42:34.611Z,19.40
2023-04-16T18:45:19.598Z,18.90
2023-04-16T18:47:59.025Z,17.70
2023-04-16T18:50:38.061Z,20.60
2023-04-16T18:53:15.433Z,17.80
2023-04-16T18:55:55.616Z,18.00
2023-04-16T18:58:32.491Z,18.00
2023-04-16T19:01:13.666Z,19.60
2023-04-16T19:03:51.426Z,19.70
2023-04-16T19:06:29.355Z,20.30
2023-04-16T19:09:06.336Z,26.20
2023-04-16T19:11:43.251Z,35.70
2023-04-16T19:14:20.842Z,31.00
2023-04-16T19:16:57.689Z,25.10
2023-04-16T19:19:35.710Z,24.70
2023-04-16T19:22:14.009Z,21.20
2023-04-16T19:24:50.795Z,23.80
2023-04-16T19:27:29.825Z,25.80
2023-04-16T19:30:07.914Z,23.70
2023-04-16T19:32:44.327Z,24.80
2023-04-16T19:35:21.340Z,24.60
2023-04-16T19:38:01.886Z,26.00
2023-04-16T19:40:38.600Z,25.00
2023-04-16T19:43:15.161Z,21.30
2023-04-16T19:45:53.813Z,29.60
2023-04-16T19:48:31.946Z,46.00
2023-04-16T19:51:09.072Z,36.90
2023-04-16T19:53:45.647Z,25.70
2023-04-16T19:56:22.107Z,25.20
2023-04-16T19:59:02.172Z,27.90
2023-04-16T20:01:38.727Z,24.90
2023-04-16T20:04:15.184Z,26.30
2023-04-16T20:06:51.769Z,27.60
2023-04-16T20:09:30.058Z,24.90
2023-04-16T20:12:07.705Z,28.20
2023-04-16T20:14:44.151Z,25.10
2023-04-16T20:17:20.559Z,27.80
2023-04-16T20:20:00.901Z,26.90
2023-04-16T20:22:37.303Z,27.60
2023-04-16T20:25:19.073Z,25.60
2023-04-16T20:30:31.162Z,27.50
2023-04-16T20:33:07.670Z,31.70
2023-04-16T20:35:44.181Z,33.30
2023-04-16T20:38:24.036Z,30.40
2023-04-16T20:41:12.494Z,35.60
2023-04-16T20:43:50.350Z,32.50
2023-04-16T20:46:30.278Z,35.40
2023-04-16T20:49:08.394Z,36.40
2023-04-16T20:51:44.892Z,34.30
2023-04-16T20:54:21.756Z,34.70
2023-04-16T20:56:58.335Z,38.50
2023-04-16T20:59:34.703Z,36.80
2023-04-16T21:02:11.330Z,37.00
2023-04-16T21:04:48.151Z,35.60
2023-04-16T21:07:24.496Z,34.50
2023-04-16T21:10:00.793Z,34.00
2023-04-16T21:12:37.757Z,37.10
2023-04-16T21:15:16.057Z,31.50
2023-04-16T21:17:52.337Z,31.70
2023-04-16T21:20:30.797Z,33.10
2023-04-16T21:23:07.728Z,31.10
2023-04-16T21:25:43.991Z,35.70
2023-04-16T21:28:20.541Z,33.00
2023-04-16T21:30:58.382Z,31.20
2023-04-16T21:33:34.985Z,29.20
2023-04-16T21:36:13.799Z,26.90
2023-04-16T21:38:50.112Z,28.20
2023-04-16T21:41:26.632Z,30.50
2023-04-16T21:44:03.074Z,28.60
2023-04-16T21:46:39.436Z,26.80
2023-04-16T21:49:17.659Z,27.60
2023-04-16T21:51:59.298Z,29.10
2023-04-16T21:54:35.681Z,31.10
2023-04-16T21:57:12.353Z,33.20
2023-04-16T21:59:48.556Z,32.10
2023-04-16T22:02:24.891Z,30.00
2023-04-16T22:05:01.975Z,29.90
2023-04-16T22:07:39.185Z,30.70
2023-04-16T22:10:16.726Z,27.00
2023-04-16T22:12:53.928Z,28.70
2023-04-16T22:15:31.876Z,29.90
2023-04-16T22:18:09.747Z,26.00
2023-04-16T22:20:47.390Z,26.70
2023-04-16T22:23:24.101Z,27.70
2023-04-16T22:26:02.693Z,28.50
2023-04-16T22:28:39.085Z,28.10
2023-04-16T22:31:15.550Z,26.40
2023-04-16T22:33:52.017Z,25.10
2023-04-16T22:36:28.490Z,28.60
2023-04-16T22:39:08.640Z,30.70
2023-04-16T22:41:45.612Z,27.70
2023-04-16T22:44:24.205Z,27.30
2023-04-16T22:47:01.904Z,25.50
2023-04-16T22:49:38.955Z,29.90
2023-04-16T22:52:15.168Z,26.10
2023-04-16T22:54:51.489Z,29.20
2023-04-16T22:57:28.017Z,29.00
2023-04-16T23:00:06.589Z,27.20
2023-04-16T23:02:43.177Z,28.00
2023-04-16T23:05:19.953Z,28.10
2023-04-16T23:07:59.092Z,29.60
2023-04-16T23:10:35.678Z,29.80
2023-04-16T23:13:12.059Z,28.40
2023-04-16T23:15:48.571Z,27.10
2023-04-16T23:18:24.982Z,26.70
2023-04-16T23:21:01.459Z,27.70
2023-04-16T23:23:42.470Z,29.60
2023-04-16T23:26:18.752Z,30.20
2023-04-16T23:28:55.046Z,30.10
2023-04-16T23:31:31.383Z,27.90
2023-04-16T23:34:07.811Z,29.40
2023-04-16T23:36:44.349Z,28.00
2023-04-16T23:39:20.803Z,28.30
2023-04-16T23:41:57.388Z,28.70
2023-04-16T23:44:34.877Z,28.60
2023-04-16T23:47:11.302Z,29.20
2023-04-16T23:49:47.623Z,29.00
2023-04-16T23:52:24.089Z,30.10
2023-04-16T23:55:00.553Z,28.40
2023-04-16T23:57:36.798Z,28.60
